Time;durP1;ratioP1;P1;durP2;ratioP2;P2;SDS_P1;SDS_P2;PMS_P1;PMS_P2;Temp;Humidity;BMP_temperature;BMP_pressure;BME280_temperature;BME280_humidity;BME280_pressure;Samples;Min_cycle;Max_cycle;Signal;HPM_P1;HPM_P2
2023/01/05 00:01:32;;;;;;;17.17;3.10;;;10.50;99.90;;;;;;5030763;28;20032;-73
2023/01/05 00:03:57;;;;;;;16.50;2.97;;;10.40;99.90;;;;;;5029054;28;20029;-71
2023/01/05 00:06:23;;;;;;;23.48;3.15;;;10.50;99.90;;;;;;5026165;28;20046;-73
2023/01/05 00:08:49;;;;;;;23.75;3.25;;;10.40;99.90;;;;;;5030680;28;20029;-73
2023/01/05 00:22:30;;;;;;;19.90;3.00;;;10.50;99.90;;;;;;5029370;28;20572;-73
2023/01/05 00:25:05;;;;;;;19.73;3.97;;;10.50;99.90;;;;;;5026308;28;20095;-73
2023/01/05 00:27:32;;;;;;;17.17;2.67;;;10.60;99.90;;;;;;5028466;28;20045;-73
2023/01/05 00:29:58;;;;;;;30.23;3.38;;;10.70;99.90;;;;;;5027822;28;20034;-72
2023/01/05 00:32:25;;;;;;;24.55;3.17;;;10.70;99.90;;;;;;5029352;28;21023;-73
2023/01/05 00:34:54;;;;;;;16.92;2.50;;;10.70;99.90;;;;;;5034676;28;20033;-73
2023/01/05 00:37:21;;;;;;;23.95;3.65;;;10.80;99.90;;;;;;5031743;28;20034;-74
2023/01/05 00:39:47;;;;;;;25.17;4.63;;;10.80;99.90;;;;;;5029029;28;20037;-73
2023/01/05 00:42:12;;;;;;;17.08;2.80;;;10.80;99.90;;;;;;5028752;28;20116;-72
2023/01/05 00:44:38;;;;;;;23.88;3.72;;;10.80;99.90;;;;;;5029042;28;20044;-72
2023/01/05 00:47:03;;;;;;;20.60;3.92;;;10.70;99.90;;;;;;5027457;28;20033;-73
2023/01/05 00:49:29;;;;;;;18.30;3.30;;;10.70;99.90;;;;;;5029188;28;20033;-72
2023/01/05 00:51:55;;;;;;;14.45;3.30;;;10.70;99.90;;;;;;5028664;28;20029;-73
2023/01/05 00:54:20;;;;;;;13.13;2.88;;;10.60;99.90;;;;;;5022824;28;20036;-73
2023/01/05 00:56:48;;;;;;;17.13;2.95;;;10.60;99.90;;;;;;5028736;28;20029;-73
2023/01/05 00:59:14;;;;;;;15.65;2.63;;;10.50;99.90;;;;;;5029283;28;20034;-73
2023/01/05 01:01:39;;;;;;;23.08;3.65;;;10.50;99.90;;;;;;5029480;28;20048;-72
2023/01/05 01:04:05;;;;;;;10.48;2.13;;;10.50;99.90;;;;;;5027324;28;20025;-73
2023/01/05 01:06:31;;;;;;;13.30;2.55;;;10.40;99.90;;;;;;5025632;28;20033;-73
2023/01/05 01:08:58;;;;;;;20.75;3.53;;;10.40;99.90;;;;;;5029297;28;20121;-73
2023/01/05 01:11:23;;;;;;;17.70;2.90;;;10.40;99.90;;;;;;5028559;28;20041;-73
2023/01/05 01:13:49;;;;;;;28.85;4.55;;;10.40;99.90;;;;;;5029749;28;20112;-73
2023/01/05 01:16:15;;;;;;;16.83;3.05;;;10.50;99.90;;;;;;5028152;28;20068;-72
2023/01/05 01:18:41;;;;;;;23.33;2.42;;;10.50;99.90;;;;;;5030685;28;20048;-73
2023/01/05 01:21:08;;;;;;;27.13;3.67;;;10.50;99.90;;;;;;5028450;28;20029;-73
2023/01/05 01:23:36;;;;;;;25.70;2.55;;;10.50;99.90;;;;;;5029267;28;20056;-73
2023/01/05 01:26:06;;;;;;;18.70;2.92;;;10.50;99.90;;;;;;5028057;28;21005;-73
2023/01/05 01:28:31;;;;;;;20.67;3.08;;;10.60;99.90;;;;;;5028582;28;20034;-73
2023/01/05 01:30:57;;;;;;;22.52;2.58;;;10.50;99.90;;;;;;5028819;28;20044;-73
2023/01/05 01:33:22;;;;;;;17.65;4.45;;;10.50;99.90;;;;;;5029096;28;20117;-73
2023/01/05 01:35:48;;;;;;;28.27;5.28;;;10.50;99.90;;;;;;5029552;28;20041;-73
2023/01/05 01:38:13;;;;;;;16.45;3.05;;;10.50;99.90;;;;;;5029530;28;20542;-71
2023/01/05 01:40:41;;;;;;;15.00;2.10;;;10.50;99.90;;;;;;5029990;28;20104;-73
2023/01/05 01:43:38;;;;;;;20.67;3.55;;;10.50;99.90;;;;;;5026273;28;20634;-73
2023/01/05 01:46:04;;;;;;;22.90;4.70;;;10.60;99.90;;;;;;5023783;28;20033;-73
2023/01/05 01:48:31;;;;;;;20.05;3.17;;;10.60;99.90;;;;;;5028958;28;20107;-73
2023/01/05 01:50:59;;;;;;;24.10;3.38;;;10.60;99.90;;;;;;5028382;28;20037;-73
2023/01/05 01:53:33;;;;;;;18.20;3.33;;;10.60;99.90;;;;;;5026980;28;20033;-73
2023/01/05 01:56:03;;;;;;;22.52;3.05;;;10.60;99.90;;;;;;5027198;28;20057;-72
2023/01/05 01:58:30;;;;;;;22.05;4.47;;;10.50;99.90;;;;;;5027398;28;20034;-72
2023/01/05 02:00:59;;;;;;;29.73;4.25;;;10.50;99.90;;;;;;5028136;28;20040;-73
2023/01/05 02:03:26;;;;;;;18.38;2.65;;;10.50;99.90;;;;;;5027101;28;20048;-73
2023/01/05 02:05:53;;;;;;;17.85;3.35;;;10.50;99.90;;;;;;5029036;28;20112;-72
2023/01/05 02:08:24;;;;;;;25.02;3.22;;;10.50;99.90;;;;;;5027457;28;20095;-73
2023/01/05 02:11:08;;;;;;;17.83;4.18;;;10.60;99.90;;;;;;5023440;28;20037;-73
2023/01/05 02:14:00;;;;;;;19.30;2.83;;;10.60;99.90;;;;;;5025270;28;20060;-74
2023/01/05 02:16:48;;;;;;;19.77;2.90;;;10.50;99.90;;;;;;5025787;28;20033;-74
2023/01/05 02:19:35;;;;;;;34.38;4.45;;;10.50;99.90;;;;;;5028249;28;20044;-73
2023/01/05 02:22:15;;;;;;;24.30;4.65;;;10.40;99.90;;;;;;5024801;28;20041;-73
2023/01/05 02:24:41;;;;;;;;;;;10.40;99.90;;;;;;5052539;28;20033;-73
2023/01/05 02:27:18;;;;;;;22.52;4.35;;;10.30;99.90;;;;;;5027636;28;19916;-74
2023/01/05 02:30:02;;;;;;;19.80;3.30;;;10.30;99.90;;;;;;5026760;28;20508;-72
2023/01/05 02:32:50;;;;;;;33.85;3.72;;;10.20;99.90;;;;;;5024341;28;20616;-73
2023/01/05 02:35:28;;;;;;;19.95;2.45;;;10.30;99.90;;;;;;5047701;28;20505;-73
2023/01/05 02:38:12;;;;;;;33.92;4.05;;;10.30;99.90;;;;;;5024656;28;20037;-73
2023/01/05 02:40:46;;;;;;;22.75;3.05;;;10.30;99.90;;;;;;5028687;28;20143;-73
2023/01/05 02:43:14;;;;;;;26.60;3.92;;;10.30;99.90;;;;;;5025066;28;20045;-74
2023/01/05 02:45:39;;;;;;;17.95;2.33;;;10.40;99.90;;;;;;5028464;28;20417;-75
2023/01/05 02:48:05;;;;;;;10.45;2.30;;;10.40;99.90;;;;;;5027990;28;20044;-72
2023/01/05 02:50:53;;;;;;;14.05;2.22;;;10.50;99.90;;;;;;5026856;28;20490;-72
2023/01/05 02:53:23;;;;;;;21.88;3.85;;;10.50;99.90;;;;;;5024146;28;20038;-73
2023/01/05 02:55:59;;;;;;;23.83;3.55;;;10.50;99.90;;;;;;5027807;28;20033;-74
2023/01/05 02:58:38;;;;;;;14.00;2.30;;;10.60;99.90;;;;;;5026524;28;20124;-74
2023/01/05 03:01:19;;;;;;;20.70;2.70;;;10.60;99.90;;;;;;5028055;28;20405;-73
2023/01/05 03:03:54;;;;;;;16.23;2.03;;;10.60;99.90;;;;;;5028585;28;20040;-73
2023/01/05 03:06:32;;;;;;;22.30;4.45;;;10.60;99.90;;;;;;5034006;28;20490;-73
2023/01/05 03:09:00;;;;;;;17.35;3.33;;;10.60;99.90;;;;;;5025813;28;20582;-73
2023/01/05 03:14:54;;;;;;;29.52;3.05;;;10.60;99.90;;;;;;5026487;28;20087;-74
2023/01/05 03:17:28;;;;;;;16.48;2.67;;;10.60;99.90;;;;;;5024446;28;20111;-73
2023/01/05 03:19:55;;;;;;;18.95;2.97;;;10.60;99.90;;;;;;5027427;28;20037;-73
2023/01/05 03:36:52;;;;;;;13.07;2.97;;;10.60;99.90;;;;;;5025426;28;20032;-72
2023/01/05 03:39:19;;;;;;;23.92;2.40;;;10.50;99.90;;;;;;5030733;28;20116;-75
2023/01/05 03:41:45;;;;;;;30.45;4.85;;;10.50;99.90;;;;;;5031094;28;20064;-74
2023/01/05 03:44:11;;;;;;;12.35;2.20;;;10.50;99.90;;;;;;5025223;28;20025;-73
2023/01/05 03:46:38;;;;;;;14.70;3.47;;;10.60;99.90;;;;;;5029683;28;20095;-74
2023/01/05 03:49:04;;;;;;;15.57;2.55;;;10.70;99.90;;;;;;5031032;28;20132;-73
2023/01/05 03:51:29;;;;;;;19.83;4.05;;;10.60;99.90;;;;;;5029306;28;20790;-73
2023/01/05 03:53:55;;;;;;;26.90;5.35;;;10.60;99.90;;;;;;5029098;28;20409;-72
2023/01/05 03:56:20;;;;;;;26.70;2.40;;;10.60;99.90;;;;;;5029019;28;20098;-73
2023/01/05 03:58:46;;;;;;;21.20;2.65;;;10.70;99.90;;;;;;5029379;28;20433;-71
2023/01/05 04:01:12;;;;;;;20.50;4.35;;;10.70;99.90;;;;;;5029280;28;20037;-74
2023/01/05 04:03:39;;;;;;;24.48;2.90;;;10.70;99.90;;;;;;5030935;28;20038;-73
2023/01/05 04:06:05;;;;;;;20.27;2.90;;;10.70;99.90;;;;;;5030187;28;20038;-74
2023/01/05 04:08:30;;;;;;;19.63;2.33;;;10.70;99.90;;;;;;5030386;28;20047;-72
2023/01/05 04:10:56;;;;;;;20.38;3.28;;;10.70;99.90;;;;;;5030155;28;20107;-73
2023/01/05 04:13:22;;;;;;;16.10;2.90;;;10.70;99.90;;;;;;5029502;28;20033;-73
2023/01/05 04:15:47;;;;;;;24.23;3.00;;;10.70;99.90;;;;;;5030769;28;20056;-72
2023/01/05 04:18:13;;;;;;;13.13;3.20;;;10.80;99.90;;;;;;5030900;28;20038;-73
2023/01/05 04:20:38;;;;;;;17.27;3.35;;;10.80;99.90;;;;;;5026886;28;20124;-73
2023/01/05 04:23:04;;;;;;;13.73;2.42;;;10.80;99.90;;;;;;5028990;28;20033;-73
2023/01/05 04:25:29;;;;;;;17.92;2.80;;;10.80;99.90;;;;;;5028937;28;20124;-73
2023/01/05 04:27:55;;;;;;;18.35;3.75;;;10.70;99.90;;;;;;5030789;28;20045;-74
2023/01/05 04:30:21;;;;;;;25.63;2.72;;;10.70;99.90;;;;;;5029090;28;20048;-74
2023/01/05 04:32:46;;;;;;;17.52;2.47;;;10.70;99.90;;;;;;5029805;28;20501;-74
2023/01/05 04:35:12;;;;;;;17.45;2.50;;;10.70;99.90;;;;;;5029813;28;20120;-74
2023/01/05 04:37:38;;;;;;;22.15;2.90;;;10.70;99.90;;;;;;5026458;28;20087;-73
2023/01/05 04:40:04;;;;;;;18.70;3.28;;;10.70;99.90;;;;;;5029792;28;20041;-73
2023/01/05 04:42:29;;;;;;;14.73;1.90;;;10.70;99.90;;;;;;5029672;28;20425;-73
2023/01/05 04:44:55;;;;;;;21.20;3.97;;;10.70;99.90;;;;;;5029866;28;20120;-74
2023/01/05 04:47:21;;;;;;;16.23;2.30;;;10.60;99.90;;;;;;5029021;28;20409;-73
2023/01/05 04:49:46;;;;;;;16.48;2.47;;;10.60;99.90;;;;;;5029235;28;20037;-74
2023/01/05 04:52:12;;;;;;;22.98;2.72;;;10.60;99.90;;;;;;5029100;28;20034;-74
2023/01/05 04:54:37;;;;;;;23.98;3.30;;;10.60;99.90;;;;;;5029548;28;20510;-74
2023/01/05 04:57:03;;;;;;;25.60;3.67;;;10.60;99.90;;;;;;5027742;28;20042;-73
2023/01/05 04:59:28;;;;;;;13.90;2.42;;;10.60;99.90;;;;;;5029433;28;20037;-74
2023/01/05 05:01:54;;;;;;;25.73;3.38;;;10.50;99.90;;;;;;5029455;28;20163;-74
2023/01/05 05:04:20;;;;;;;18.45;3.15;;;10.50;99.90;;;;;;5028938;28;20065;-74
2023/01/05 05:06:45;;;;;;;21.08;2.78;;;10.50;99.90;;;;;;5027341;28;20083;-74
2023/01/05 05:09:11;;;;;;;20.42;3.35;;;10.40;99.90;;;;;;5028677;28;20034;-75
2023/01/05 05:11:36;;;;;;;20.77;2.53;;;10.50;99.90;;;;;;5029978;28;20128;-72
2023/01/05 05:14:02;;;;;;;12.90;2.88;;;10.40;99.90;;;;;;5028434;28;20284;-73
2023/01/05 05:16:27;;;;;;;18.15;3.05;;;10.40;99.90;;;;;;5027615;28;20029;-72
2023/01/05 05:18:53;;;;;;;19.48;2.65;;;10.40;99.90;;;;;;5028297;28;20095;-73
2023/01/05 05:21:18;;;;;;;15.27;2.92;;;10.40;99.90;;;;;;5028241;28;20052;-72
2023/01/05 05:23:44;;;;;;;13.65;2.65;;;10.40;99.90;;;;;;5029377;28;20045;-73
2023/01/05 05:26:10;;;;;;;22.65;3.75;;;10.40;99.90;;;;;;5029681;28;20033;-73
2023/01/05 05:28:35;;;;;;;27.00;3.97;;;10.40;99.90;;;;;;5028655;28;20085;-73
2023/01/05 05:31:01;;;;;;;22.63;3.67;;;10.40;99.90;;;;;;5028653;28;20448;-73
2023/01/05 05:33:27;;;;;;;19.92;2.88;;;10.40;99.90;;;;;;5029377;28;20044;-73
2023/01/05 05:35:52;;;;;;;15.43;2.67;;;10.40;99.90;;;;;;5034417;28;20048;-74
2023/01/05 05:38:18;;;;;;;14.07;3.40;;;10.30;99.90;;;;;;5029467;28;20045;-73
2023/01/05 05:40:47;;;;;;;17.00;2.72;;;10.40;99.90;;;;;;5028652;28;20040;-73
2023/01/05 05:43:13;;;;;;;24.88;3.80;;;10.40;99.90;;;;;;5026853;28;20120;-73
2023/01/05 05:45:38;;;;;;;22.67;3.50;;;10.50;99.90;;;;;;5028337;28;20582;-72
2023/01/05 05:48:05;;;;;;;27.75;4.10;;;10.50;99.90;;;;;;5028666;28;20041;-75
2023/01/05 05:50:31;;;;;;;30.77;4.40;;;10.40;99.90;;;;;;5028082;28;20083;-73
2023/01/05 05:52:56;;;;;;;19.90;4.32;;;10.40;99.90;;;;;;5028261;28;20441;-73
2023/01/05 05:55:22;;;;;;;16.90;3.67;;;10.50;99.90;;;;;;5028536;28;20049;-73
2023/01/05 05:57:47;;;;;;;11.10;2.53;;;10.40;99.90;;;;;;5026814;28;20506;-73
2023/01/05 06:00:14;;;;;;;16.83;3.17;;;10.40;99.90;;;;;;5029113;28;20033;-74
2023/01/05 06:02:39;;;;;;;16.52;3.42;;;10.40;99.90;;;;;;5021618;28;20056;-73
2023/01/05 06:05:05;;;;;;;18.17;2.75;;;10.50;99.90;;;;;;5024363;28;20034;-71
2023/01/05 06:07:31;;;;;;;19.00;3.25;;;10.50;99.90;;;;;;5026106;28;20029;-73
2023/01/05 06:09:56;;;;;;;21.15;2.75;;;10.50;99.90;;;;;;5026133;28;20129;-73
2023/01/05 06:12:22;;;;;;;33.28;4.18;;;10.50;99.90;;;;;;5025003;28;20140;-74
2023/01/05 06:14:48;;;;;;;28.77;5.10;;;10.50;99.90;;;;;;5025516;28;20037;-73
2023/01/05 06:17:13;;;;;;;22.45;4.68;;;10.60;99.90;;;;;;5024472;28;20527;-72
2023/01/05 06:19:39;;;;;;;21.38;3.38;;;10.50;99.90;;;;;;5025664;28;20041;-73
2023/01/05 06:22:05;;;;;;;23.40;3.05;;;10.60;99.90;;;;;;5026213;28;20033;-73
2023/01/05 06:24:31;;;;;;;19.67;2.65;;;10.60;99.90;;;;;;5022822;28;20037;-74
2023/01/05 06:26:56;;;;;;;22.33;2.95;;;10.60;99.90;;;;;;5024588;28;20071;-72
2023/01/05 06:29:22;;;;;;;23.67;4.47;;;10.60;99.90;;;;;;5025887;28;20034;-72
2023/01/05 06:31:47;;;;;;;12.90;1.90;;;10.70;99.90;;;;;;5026443;28;20095;-73
2023/01/05 06:34:13;;;;;;;23.73;3.55;;;10.60;99.90;;;;;;5026314;28;20037;-74
2023/01/05 06:36:39;;;;;;;29.08;3.35;;;10.70;99.90;;;;;;5026888;28;20045;-73
2023/01/05 06:39:04;;;;;;;20.80;3.00;;;10.60;99.90;;;;;;5021865;28;20041;-72
2023/01/05 06:41:30;;;;;;;18.77;3.78;;;10.70;99.90;;;;;;5026028;28;20556;-72
2023/01/05 06:43:55;;;;;;;32.78;5.07;;;10.60;99.90;;;;;;5024144;28;20033;-73
2023/01/05 06:46:21;;;;;;;22.95;2.75;;;10.70;99.90;;;;;;5025806;28;20144;-74
2023/01/05 06:48:47;;;;;;;19.75;3.45;;;10.60;99.90;;;;;;5024668;28;20410;-75
2023/01/05 06:51:12;;;;;;;25.00;4.43;;;10.60;99.90;;;;;;5026882;28;20037;-72
2023/01/05 06:53:38;;;;;;;19.60;2.85;;;10.60;99.90;;;;;;5026607;28;20129;-73
2023/01/05 06:56:04;;;;;;;12.05;3.22;;;10.60;99.90;;;;;;5026967;28;20037;-74
2023/01/05 06:58:29;;;;;;;24.42;2.60;;;10.50;99.90;;;;;;5022903;28;20414;-73
2023/01/05 07:00:55;;;;;;;20.17;3.00;;;10.50;99.90;;;;;;5024338;28;20036;-71
2023/01/05 07:03:23;;;;;;;25.35;3.63;;;10.50;99.90;;;;;;5026191;28;20033;-73
2023/01/05 07:05:48;;;;;;;12.60;3.03;;;10.50;99.90;;;;;;5026505;28;20037;-74
2023/01/05 07:08:14;;;;;;;23.92;3.05;;;10.50;99.90;;;;;;5024153;28;20041;-73
2023/01/05 07:10:40;;;;;;;24.75;2.75;;;10.50;99.90;;;;;;5029007;28;20057;-73
2023/01/05 07:13:05;;;;;;;20.50;2.95;;;10.50;99.90;;;;;;5028690;28;20401;-73
2023/01/05 07:15:31;;;;;;;25.30;2.90;;;10.40;99.90;;;;;;5030208;28;20509;-72
2023/01/05 07:17:56;;;;;;;21.92;3.50;;;10.50;99.90;;;;;;5028413;28;20136;-72
2023/01/05 07:20:22;;;;;;;17.75;2.85;;;10.40;99.90;;;;;;5030126;28;20079;-73
2023/01/05 07:22:47;;;;;;;19.58;3.92;;;10.50;99.90;;;;;;5030270;28;20041;-73
2023/01/05 07:25:13;;;;;;;20.92;3.03;;;10.50;99.90;;;;;;5029930;28;20029;-73
2023/01/05 07:27:39;;;;;;;22.17;3.40;;;10.40;99.90;;;;;;5030247;28;20038;-73
2023/01/05 07:30:05;;;;;;;18.60;2.65;;;10.40;99.90;;;;;;5030344;28;20045;-73
2023/01/05 07:32:31;;;;;;;25.40;2.55;;;10.40;99.90;;;;;;5027956;28;20045;-73
2023/01/05 07:34:56;;;;;;;21.70;3.83;;;10.50;99.90;;;;;;5030102;28;20056;-73
2023/01/05 07:37:25;;;;;;;15.85;3.08;;;10.40;99.90;;;;;;5030367;28;20416;-73
2023/01/05 07:39:51;;;;;;;29.45;2.95;;;10.40;99.90;;;;;;5029680;28;20087;-73
2023/01/05 07:42:17;;;;;;;19.95;3.85;;;10.40;99.90;;;;;;5028477;28;20044;-72
2023/01/05 07:44:44;;;;;;;19.67;2.58;;;10.30;99.90;;;;;;5029758;28;20042;-74
2023/01/05 07:47:09;;;;;;;15.48;2.60;;;10.30;99.90;;;;;;5027391;28;20688;-72
2023/01/05 07:49:35;;;;;;;19.67;2.22;;;10.20;99.90;;;;;;5029757;28;20041;-73
2023/01/05 07:52:00;;;;;;;18.15;3.00;;;10.20;99.90;;;;;;5030339;28;20811;-73
2023/01/05 07:54:26;;;;;;;13.23;2.42;;;10.30;99.90;;;;;;5028673;28;20076;-74
2023/01/05 07:56:51;;;;;;;20.10;3.88;;;10.30;99.90;;;;;;5027968;28;20037;-71
2023/01/05 07:59:17;;;;;;;14.88;2.60;;;10.30;99.90;;;;;;5028526;28;20375;-73
2023/01/05 08:01:43;;;;;;;31.38;4.45;;;10.30;99.90;;;;;;5029320;28;20092;-72
2023/01/05 08:04:09;;;;;;;25.35;3.97;;;10.40;99.90;;;;;;5028937;28;20049;-74
2023/01/05 08:06:35;;;;;;;24.88;4.85;;;10.30;99.90;;;;;;5034998;28;20046;-73
2023/01/05 08:10:27;;;;;;;20.02;3.15;;;10.30;99.90;;;;;;5029079;28;20029;-74
2023/01/05 08:11:46;;;;;;;16.02;3.95;;;10.30;99.90;;;;;;5027636;28;20060;-74
2023/01/05 08:14:12;;;;;;;40.97;3.72;;;10.30;99.90;;;;;;5028455;28;20052;-73
2023/01/05 08:16:37;;;;;;;19.42;3.03;;;10.30;99.90;;;;;;5028404;28;20030;-74
2023/01/05 08:19:03;;;;;;;20.25;3.35;;;10.20;99.90;;;;;;5027242;28;20041;-72
2023/01/05 08:21:29;;;;;;;28.10;5.03;;;10.30;99.90;;;;;;5027015;28;20036;-72
2023/01/05 08:23:56;;;;;;;22.88;3.13;;;10.20;99.90;;;;;;5028218;28;20053;-72
2023/01/05 08:26:22;;;;;;;24.15;4.57;;;10.30;99.90;;;;;;5026512;28;20141;-72
2023/01/05 08:28:48;;;;;;;32.50;2.75;;;10.30;99.90;;;;;;5028016;28;20116;-73
2023/01/05 08:31:23;;;;;;;22.35;3.70;;;10.30;99.90;;;;;;5028427;28;20086;-74
2023/01/05 08:33:49;;;;;;;18.42;2.85;;;10.30;99.90;;;;;;5026981;28;20033;-74
2023/01/05 08:36:18;;;;;;;20.60;3.03;;;10.30;99.90;;;;;;5028570;28;20045;-73
2023/01/05 08:38:47;;;;;;;20.13;2.75;;;10.40;99.90;;;;;;5027292;28;20047;-74
2023/01/05 08:41:18;;;;;;;19.63;3.33;;;10.40;99.90;;;;;;5027285;28;20075;-73
2023/01/05 08:43:49;;;;;;;14.85;2.40;;;10.40;99.90;;;;;;5028713;28;20037;-73
2023/01/05 08:46:15;;;;;;;14.93;2.30;;;10.50;99.90;;;;;;5028035;28;20037;-73
2023/01/05 08:48:40;;;;;;;16.15;2.40;;;10.50;99.90;;;;;;5029161;28;20467;-72
2023/01/05 08:51:06;;;;;;;22.15;3.45;;;10.50;99.90;;;;;;5024640;28;20034;-72
2023/01/05 08:53:33;;;;;;;26.30;4.20;;;10.50;99.90;;;;;;5027086;28;20038;-73
2023/01/05 08:56:00;;;;;;;20.65;2.80;;;10.60;99.90;;;;;;5028011;28;20036;-72
2023/01/05 08:58:25;;;;;;;20.75;3.05;;;10.60;99.90;;;;;;5028137;28;20037;-73
2023/01/05 09:00:52;;;;;;;18.25;3.22;;;10.60;99.90;;;;;;5026426;28;20033;-73
2023/01/05 09:03:18;;;;;;;21.33;3.38;;;10.60;99.90;;;;;;5026207;28;20052;-73
2023/01/05 09:05:44;;;;;;;19.98;2.55;;;10.70;99.90;;;;;;5026830;28;20045;-71
2023/01/05 09:08:09;;;;;;;22.10;4.20;;;10.70;99.90;;;;;;5024807;28;20746;-72
2023/01/05 09:10:35;;;;;;;20.55;3.22;;;10.70;99.90;;;;;;5028204;28;20056;-73
2023/01/05 09:13:00;;;;;;;15.93;2.50;;;10.70;99.90;;;;;;5027462;28;20034;-72
2023/01/05 09:15:26;;;;;;;14.50;2.63;;;10.80;99.90;;;;;;5027366;28;20136;-73
2023/01/05 09:17:52;;;;;;;21.45;4.00;;;10.80;99.90;;;;;;5027562;28;20037;-73
2023/01/05 09:20:17;;;;;;;9.75;2.50;;;10.80;99.90;;;;;;5027251;28;20044;-73
2023/01/05 09:22:43;;;;;;;17.35;2.10;;;10.80;99.90;;;;;;5024948;28;20044;-73
2023/01/05 09:25:09;;;;;;;11.50;3.15;;;10.80;99.90;;;;;;5025221;28;20041;-73
2023/01/05 09:27:35;;;;;;;17.95;2.80;;;10.90;99.90;;;;;;5027511;28;20553;-73
2023/01/05 09:30:02;;;;;;;15.50;2.28;;;10.90;99.90;;;;;;5026996;28;20072;-73
2023/01/05 09:32:28;;;;;;;21.95;3.53;;;10.90;99.90;;;;;;5026318;28;21058;-73
2023/01/05 09:34:53;;;;;;;11.82;2.85;;;10.90;99.90;;;;;;5027227;28;20083;-72
2023/01/05 09:37:19;;;;;;;15.02;2.95;;;10.90;99.90;;;;;;5023428;28;20121;-74
2023/01/05 09:39:46;;;;;;;26.70;3.40;;;10.90;99.90;;;;;;5027504;28;20095;-72
2023/01/05 09:42:17;;;;;;;23.23;3.85;;;11.00;99.90;;;;;;5025102;28;20533;-73
2023/01/05 09:44:51;;;;;;;21.80;3.95;;;11.00;99.90;;;;;;5025006;28;20047;-72
2023/01/05 09:47:25;;;;;;;19.27;2.80;;;11.00;99.90;;;;;;5025274;28;20243;-72
2023/01/05 09:49:52;;;;;;;21.30;3.65;;;11.00;99.90;;;;;;5023859;28;20422;-72
2023/01/05 09:52:20;;;;;;;21.73;2.75;;;11.00;99.90;;;;;;5024140;28;20125;-72
2023/01/05 09:54:45;;;;;;;22.70;2.85;;;11.00;99.90;;;;;;5024923;28;20046;-72
2023/01/05 09:57:18;;;;;;;20.20;2.25;;;11.10;99.90;;;;;;5026429;28;20091;-72
2023/01/05 09:59:48;;;;;;;11.77;2.25;;;11.20;99.90;;;;;;5024849;28;20066;-72
2023/01/05 10:02:20;;;;;;;21.53;2.37;;;11.20;99.90;;;;;;5024191;28;20193;-72
2023/01/05 10:04:47;;;;;;;14.32;2.30;;;11.20;99.90;;;;;;5025921;28;20272;-74
2023/01/05 10:07:41;;;;;;;20.50;2.88;;;11.30;99.90;;;;;;5026048;28;20040;-72
2023/01/05 10:10:29;;;;;;;19.15;2.53;;;11.30;99.90;;;;;;5009559;28;20112;-74
2023/01/05 10:13:04;;;;;;;19.10;3.33;;;11.30;99.90;;;;;;5022446;28;20040;-73
2023/01/05 10:15:38;;;;;;;12.45;2.55;;;11.40;99.90;;;;;;5024347;28;20055;-74
2023/01/05 10:18:10;;;;;;;15.57;3.05;;;11.40;99.90;;;;;;5026005;28;20044;-74
2023/01/05 10:20:52;;;;;;;18.75;3.45;;;11.40;99.90;;;;;;5026200;28;20041;-73
2023/01/05 10:23:29;;;;;;;15.32;2.20;;;11.40;99.90;;;;;;5025501;28;20048;-73
2023/01/05 10:26:11;;;;;;;13.95;3.30;;;11.40;99.90;;;;;;5024050;28;20516;-72
2023/01/05 10:28:49;;;;;;;17.38;3.28;;;11.40;99.90;;;;;;5026862;28;20391;-73
2023/01/05 10:31:23;;;;;;;22.63;3.20;;;11.40;99.90;;;;;;5025441;28;20033;-74
2023/01/05 10:33:51;;;;;;;15.60;1.95;;;11.50;99.90;;;;;;5025535;28;20410;-74
2023/01/05 10:36:26;;;;;;;23.60;3.10;;;11.50;99.90;;;;;;5026072;28;20029;-73
2023/01/05 10:38:59;;;;;;;11.98;2.15;;;11.50;99.90;;;;;;5022570;28;20041;-74
2023/01/05 10:41:57;;;;;;;19.35;2.20;;;11.50;99.90;;;;;;5024782;28;20060;-75
2023/01/05 10:44:34;;;;;;;19.98;2.42;;;11.50;99.90;;;;;;5023081;28;20675;-74
2023/01/05 10:47:01;;;;;;;10.57;2.13;;;11.60;99.90;;;;;;5026083;28;20064;-76
2023/01/05 10:49:31;;;;;;;23.67;2.97;;;11.50;99.90;;;;;;5029879;28;20117;-72
2023/01/05 10:51:59;;;;;;;13.40;2.70;;;11.60;99.90;;;;;;5030033;28;20025;-75
2023/01/05 10:54:44;;;;;;;17.27;3.05;;;11.70;99.90;;;;;;5023750;28;20039;-75
2023/01/05 10:57:27;;;;;;;20.20;3.10;;;11.70;99.90;;;;;;5029458;28;20589;-74
2023/01/05 11:00:15;;;;;;;31.92;3.28;;;11.80;99.90;;;;;;5026899;28;20026;-74
2023/01/05 11:02:49;;;;;;;17.10;2.47;;;11.80;99.90;;;;;;5027833;28;20394;-74
2023/01/05 11:05:35;;;;;;;19.08;2.63;;;11.80;99.90;;;;;;5029244;28;20033;-73
2023/01/05 11:08:06;;;;;;;14.70;2.60;;;11.80;99.90;;;;;;5027874;28;20037;-74
2023/01/05 11:10:54;;;;;;;19.15;2.42;;;11.80;99.90;;;;;;5027795;28;20030;-78
2023/01/05 11:13:32;;;;;;;18.65;2.50;;;11.80;99.90;;;;;;5027792;28;20401;-73
2023/01/05 11:16:12;;;;;;;14.35;2.42;;;11.90;99.90;;;;;;5026644;28;20083;-74
2023/01/05 11:18:48;;;;;;;16.13;3.05;;;12.00;99.90;;;;;;5026291;28;20100;-74
2023/01/05 11:21:18;;;;;;;16.00;3.03;;;12.00;99.90;;;;;;5025312;28;20100;-72
2023/01/05 11:23:47;;;;;;;14.77;2.95;;;12.00;99.90;;;;;;5027755;28;20041;-72
2023/01/05 11:26:18;;;;;;;17.20;2.28;;;12.10;99.90;;;;;;5026701;28;20033;-73
2023/01/05 11:29:13;;;;;;;25.63;3.85;;;12.00;99.90;;;;;;5027961;28;20041;-73
2023/01/05 11:31:51;;;;;;;18.35;3.30;;;12.10;99.90;;;;;;5026507;28;20041;-74
2023/01/05 11:34:29;;;;;;;20.58;3.38;;;12.10;99.90;;;;;;5025421;28;20080;-73
2023/01/05 11:36:56;;;;;;;20.88;3.45;;;12.20;99.90;;;;;;5027948;28;20042;-74
2023/01/05 11:39:29;;;;;;;21.83;3.30;;;12.20;99.90;;;;;;5025121;28;20030;-74
2023/01/05 11:42:27;;;;;;;20.60;3.17;;;12.20;99.90;;;;;;5027764;28;20096;-74
2023/01/05 11:45:01;;;;;;;28.48;3.05;;;12.30;99.90;;;;;;5024289;28;20053;-74
2023/01/05 11:47:32;;;;;;;17.88;2.08;;;12.40;99.90;;;;;;5026466;28;20041;-74
2023/01/05 11:50:12;;;;;;;13.70;3.72;;;12.40;99.90;;;;;;5027427;28;20034;-74
2023/01/05 11:52:41;;;;;;;;;;;12.40;99.90;;;;;;5026093;28;20047;-74
2023/01/05 11:55:18;;;;;;;20.88;2.38;;;12.50;99.90;;;;;;5026356;28;19925;-74
2023/01/05 11:57:44;;;;;;;23.98;2.90;;;12.50;99.90;;;;;;5025253;28;20124;-74
2023/01/05 12:00:33;;;;;;;17.85;4.28;;;12.60;99.90;;;;;;5025560;28;20093;-75
2023/01/05 12:03:07;;;;;;;19.10;2.83;;;12.60;99.90;;;;;;5023537;28;20506;-74
2023/01/05 12:05:55;;;;;;;21.77;4.07;;;12.70;99.90;;;;;;5024563;28;20045;-73
2023/01/05 12:08:23;;;;;;;19.40;3.88;;;12.70;99.90;;;;;;5022275;28;20033;-73
2023/01/05 12:10:49;;;;;;;14.98;3.20;;;12.70;99.90;;;;;;5023197;28;20534;-73
2023/01/05 12:13:44;;;;;;;23.65;2.60;;;12.80;99.90;;;;;;5025856;28;20040;-75
2023/01/05 12:16:47;;;;;;;24.90;3.70;;;12.80;99.90;;;;;;5005632;28;20044;-74
2023/01/05 12:19:19;;;;;;;16.45;2.83;;;12.80;99.90;;;;;;5024690;28;20121;-73
2023/01/05 12:22:11;;;;;;;21.42;3.53;;;12.80;99.90;;;;;;5024889;28;20049;-73
2023/01/05 12:24:39;;;;;;;18.00;2.75;;;12.90;99.90;;;;;;5025789;28;20099;-73
2023/01/05 12:27:26;;;;;;;17.83;2.58;;;12.90;99.90;;;;;;5026893;28;20821;-74
2023/01/05 12:30:01;;;;;;;25.85;3.38;;;12.90;99.90;;;;;;5025125;28;20041;-74
2023/01/05 12:32:58;;;;;;;23.50;3.38;;;12.80;99.90;;;;;;5027049;28;20163;-74
2023/01/05 12:35:50;;;;;;;16.75;2.55;;;12.80;99.90;;;;;;5023518;28;20076;-74
2023/01/05 12:38:25;;;;;;;13.00;2.40;;;12.70;99.90;;;;;;5023664;28;20128;-74
2023/01/05 12:41:17;;;;;;;22.63;3.13;;;12.80;99.90;;;;;;5027005;28;20048;-74
2023/01/05 12:44:13;;;;;;;12.10;3.05;;;12.90;99.90;;;;;;5024465;28;20532;-71
2023/01/05 12:47:05;;;;;;;24.27;4.00;;;12.90;99.90;;;;;;5025166;28;20179;-74
2023/01/05 12:49:46;;;;;;;11.32;2.15;;;12.80;99.90;;;;;;5019187;28;20034;-74
2023/01/05 12:52:19;;;;;;;22.52;2.88;;;12.70;99.90;;;;;;5024771;28;20041;-73
2023/01/05 12:55:20;;;;;;;30.85;3.22;;;12.70;99.90;;;;;;5027526;28;20034;-73
2023/01/05 12:57:53;;;;;;;23.60;2.78;;;12.60;99.90;;;;;;5026106;28;20123;-74
2023/01/05 13:00:20;;;;;;;19.73;2.78;;;12.50;99.90;;;;;;5027824;28;20116;-74
2023/01/05 13:02:59;;;;;;;21.02;2.53;;;12.50;99.90;;;;;;5028282;28;20045;-73
2023/01/05 13:06:03;;;;;;;20.80;2.90;;;12.50;99.90;;;;;;5024022;28;20021;-74
2023/01/05 13:08:38;;;;;;;15.10;2.75;;;12.50;99.90;;;;;;5022594;28;20037;-75
2023/01/05 13:11:28;;;;;;;28.80;3.00;;;12.50;99.90;;;;;;5027313;28;20128;-74
2023/01/05 13:13:59;;;;;;;22.15;2.97;;;12.50;99.90;;;;;;5025821;28;20229;-74
2023/01/05 13:16:31;;;;;;;23.42;3.88;;;12.40;99.90;;;;;;5027216;28;20026;-74
2023/01/05 13:19:18;;;;;;;25.60;4.03;;;12.40;99.90;;;;;;5025158;28;20804;-73
2023/01/05 13:21:45;;;;;;;22.13;3.83;;;12.40;99.90;;;;;;5026071;28;20037;-74
2023/01/05 13:24:26;;;;;;;22.63;3.50;;;12.30;99.90;;;;;;5024705;28;20038;-73